Terminal Aerodrome Forecast
Issued by NWS

Home | Current Version | Previous Version | Text Only | Print | Product List | Glossary On
Versions: 1 2 3 4 5 6 7 8 9 10 11 12 13 14 15 16
000
FTUS46 KMTR 181700 RRA
TAFSTS
TAF
KSTS 181744Z 1818/1918 VRB03KT P6SM FEW250
     FM182000 21008KT P6SM FEW250
     FM190300 17005KT P6SM SKC
     FM191200 00000KT 6SM BR SCT015
     FM191600 VRB02KT P6SM SKC=

USA.gov is the U.S. government's official web portal to all federal, state and local government web resources and services.